Mosca, CO (81146)

6:25 PM MST on January 27, 2015 (GMT -0700)
Hooper | Change Station
CLOSE
Current Station
Personal Weather Station
Location: Hooper, CO
Elevation: 7559 ft
Nearby Weather Stations

Elev 7559 ft 37.73 °N, 105.87 °W | Updated 8 seconds ago

Clear
Clear
31.3 °F
Feels Like 31 °F
N
1.0
Wind Variable Wind from SSW
Gusts 4.0 mph

Today
High -- | Low -- °F
--% Chance of Precip.
Yesterday
High -- | Low -- °F
Precip. -- in
7:10 AM 5:20 PM
First Quarter, 59% visible
Pressure 30.34 in
Visibility 10.0 miles
Clouds Clear
Windchill 31 °F
Dew Point 24 °F
Humidity 73%
Rainfall 0.00 in
Snow Depth Not available.
UV 0 out of 12
Pollen 2.50 out of 12
Air Quality Not available.
Flu Activity Not available.
METAR KALS 280052Z AUTO 00000KT 10SM CLR 04/M05 A3024 RMK AO2 SLP272 T00391050

More Conditions Fewer Conditions

Pressure 30.34 in
Visibility 10.0 miles
Clouds Clear
Windchill 31 °F
Dew Point 24 °F
Humidity 73%
Rainfall 0.00 in
Snow Depth Not available.
UV 0 out of 12
Pollen 2.50 out of 12
Air Quality Not available.
Flu Activity Not available.
METAR KALS 280052Z AUTO 00000KT 10SM CLR 04/M05 A3024 RMK AO2 SLP272 T00391050

More Conditions Fewer Conditions

10-Day Weather Forecast

Almanac

Astronomy

Jan. 27, 2015 Rise Set
Actual Time
Civil Twilight
Nautical Twilight
Astronomical Twilight
Moon
Length of Visible Light
Length of Day
Tomorrow will be .
, % of the Moon is Illuminated

Today's Extremes

State Highs State Lows

Community

WunderPhotos

Upload Photos

1,791,024 photos uploaded!

WunderBlogs® & News

Nearby

Air Quality

  Air Quality AQ Index Pollutant
Not available.

Snow Depth

Station Depth Elevation

Earthquake Activity

City Distance Mag. Time & Date
Minimum magnitude displayed is 2.5.

Coastal Water Temperatures

Place Temperature

Nearby Weather Stations